<?xml version="1.0" encoding="UTF-8" standalone="no" ?>
<gpx xmlns="http://www.topografix.com/GPX/1/1" xmlns:xsi="http://www.w3.org/2001/XMLSchema-instance" xsi:schemaLocation="http://www.topografix.com/GPX/1/1 http://www.topografix.com/GPX/1/1/gpx.xsd" version="1.1" creator="VisuGPX - https://www.visugpx.com">
  <metadata>
    <name>La Chapelle-de-Guinchay Cyclisme</name>
    <desc><![CDATA[Col de la Serve au départ de la rivière l'Ardière]]></desc>
  </metadata>
  <trk>
    <name><![CDATA[La Chapelle-de-Guinchay Cyclisme]]></name>
    <trkseg>
      <trkpt lat="46.18511" lon="4.50961">
        <ele>557.79998779297</ele>
        <time>2019-08-27T14:44:55.000Z</time>
      </trkpt>
      <trkpt lat="46.18536" lon="4.51042">
        <ele>555.79998779297</ele>
        <time>2019-08-27T14:45:02.000Z</time>
      </trkpt>
      <trkpt lat="46.18551" lon="4.51088">
        <ele>555.40002441406</ele>
        <time>2019-08-27T14:45:07.000Z</time>
      </trkpt>
      <trkpt lat="46.18556" lon="4.51096">
        <ele>555.40002441406</ele>
        <time>2019-08-27T14:45:08.000Z</time>
      </trkpt>
      <trkpt lat="46.18574" lon="4.5112">
        <ele>556</ele>
        <time>2019-08-27T14:45:12.000Z</time>
      </trkpt>
      <trkpt lat="46.18579" lon="4.51124">
        <ele>556</ele>
        <time>2019-08-27T14:45:13.000Z</time>
      </trkpt>
      <trkpt lat="46.18584" lon="4.51127">
        <ele>556.20001220703</ele>
        <time>2019-08-27T14:45:14.000Z</time>
      </trkpt>
      <trkpt lat="46.18594" lon="4.51133">
        <ele>556.79998779297</ele>
        <time>2019-08-27T14:45:16.000Z</time>
      </trkpt>
      <trkpt lat="46.18604" lon="4.51138">
        <ele>557.40002441406</ele>
        <time>2019-08-27T14:45:18.000Z</time>
      </trkpt>
      <trkpt lat="46.18615" lon="4.51141">
        <ele>558</ele>
        <time>2019-08-27T14:45:20.000Z</time>
      </trkpt>
      <trkpt lat="46.1862" lon="4.51142">
        <ele>558.40002441406</ele>
        <time>2019-08-27T14:45:21.000Z</time>
      </trkpt>
      <trkpt lat="46.18636" lon="4.51145">
        <ele>559.59997558594</ele>
        <time>2019-08-27T14:45:24.000Z</time>
      </trkpt>
      <trkpt lat="46.18647" lon="4.51148">
        <ele>560.20001220703</ele>
        <time>2019-08-27T14:45:26.000Z</time>
      </trkpt>
      <trkpt lat="46.18664" lon="4.51158">
        <ele>559.79998779297</ele>
        <time>2019-08-27T14:45:29.000Z</time>
      </trkpt>
      <trkpt lat="46.18668" lon="4.51163">
        <ele>559.59997558594</ele>
        <time>2019-08-27T14:45:30.000Z</time>
      </trkpt>
      <trkpt lat="46.18683" lon="4.51178">
        <ele>558.79998779297</ele>
        <time>2019-08-27T14:45:33.000Z</time>
      </trkpt>
      <trkpt lat="46.18689" lon="4.51183">
        <ele>558.59997558594</ele>
        <time>2019-08-27T14:45:34.000Z</time>
      </trkpt>
      <trkpt lat="46.18734" lon="4.51224">
        <ele>557.40002441406</ele>
        <time>2019-08-27T14:45:42.000Z</time>
      </trkpt>
      <trkpt lat="46.18762" lon="4.51261">
        <ele>558.79998779297</ele>
        <time>2019-08-27T14:45:48.000Z</time>
      </trkpt>
      <trkpt lat="46.18785" lon="4.51297">
        <ele>559</ele>
        <time>2019-08-27T14:45:54.000Z</time>
      </trkpt>
      <trkpt lat="46.18789" lon="4.51303">
        <ele>559</ele>
        <time>2019-08-27T14:45:55.000Z</time>
      </trkpt>
      <trkpt lat="46.18812" lon="4.51326">
        <ele>559.59997558594</ele>
        <time>2019-08-27T14:46:00.000Z</time>
      </trkpt>
      <trkpt lat="46.18817" lon="4.51329">
        <ele>560</ele>
        <time>2019-08-27T14:46:01.000Z</time>
      </trkpt>
      <trkpt lat="46.18837" lon="4.51345">
        <ele>561.40002441406</ele>
        <time>2019-08-27T14:46:05.000Z</time>
      </trkpt>
      <trkpt lat="46.18846" lon="4.51351">
        <ele>562.20001220703</ele>
        <time>2019-08-27T14:46:07.000Z</time>
      </trkpt>
      <trkpt lat="46.18867" lon="4.51369">
        <ele>563.40002441406</ele>
        <time>2019-08-27T14:46:12.000Z</time>
      </trkpt>
      <trkpt lat="46.18875" lon="4.51376">
        <ele>564</ele>
        <time>2019-08-27T14:46:14.000Z</time>
      </trkpt>
      <trkpt lat="46.18902" lon="4.51408">
        <ele>563.79998779297</ele>
        <time>2019-08-27T14:46:22.000Z</time>
      </trkpt>
      <trkpt lat="46.1891" lon="4.51417">
        <ele>563.20001220703</ele>
        <time>2019-08-27T14:46:24.000Z</time>
      </trkpt>
      <trkpt lat="46.18922" lon="4.5143">
        <ele>562.20001220703</ele>
        <time>2019-08-27T14:46:27.000Z</time>
      </trkpt>
      <trkpt lat="46.18926" lon="4.51434">
        <ele>561.79998779297</ele>
        <time>2019-08-27T14:46:28.000Z</time>
      </trkpt>
      <trkpt lat="46.18936" lon="4.51439">
        <ele>561.79998779297</ele>
        <time>2019-08-27T14:46:30.000Z</time>
      </trkpt>
      <trkpt lat="46.18947" lon="4.51441">
        <ele>562</ele>
        <time>2019-08-27T14:46:32.000Z</time>
      </trkpt>
      <trkpt lat="46.18981" lon="4.51444">
        <ele>563.40002441406</ele>
        <time>2019-08-27T14:46:38.000Z</time>
      </trkpt>
      <trkpt lat="46.18992" lon="4.51445">
        <ele>564.59997558594</ele>
        <time>2019-08-27T14:46:40.000Z</time>
      </trkpt>
      <trkpt lat="46.18998" lon="4.51446">
        <ele>565</ele>
        <time>2019-08-27T14:46:41.000Z</time>
      </trkpt>
      <trkpt lat="46.19013" lon="4.51456">
        <ele>566</ele>
        <time>2019-08-27T14:46:44.000Z</time>
      </trkpt>
      <trkpt lat="46.19026" lon="4.51469">
        <ele>567.20001220703</ele>
        <time>2019-08-27T14:46:47.000Z</time>
      </trkpt>
      <trkpt lat="46.19032" lon="4.51481">
        <ele>567.59997558594</ele>
        <time>2019-08-27T14:46:49.000Z</time>
      </trkpt>
      <trkpt lat="46.19039" lon="4.51498">
        <ele>568.20001220703</ele>
        <time>2019-08-27T14:46:52.000Z</time>
      </trkpt>
      <trkpt lat="46.19045" lon="4.51515">
        <ele>568.59997558594</ele>
        <time>2019-08-27T14:46:55.000Z</time>
      </trkpt>
      <trkpt lat="46.19049" lon="4.51527">
        <ele>568</ele>
        <time>2019-08-27T14:46:57.000Z</time>
      </trkpt>
      <trkpt lat="46.19051" lon="4.51533">
        <ele>567.79998779297</ele>
        <time>2019-08-27T14:46:58.000Z</time>
      </trkpt>
      <trkpt lat="46.19056" lon="4.51551">
        <ele>567.59997558594</ele>
        <time>2019-08-27T14:47:01.000Z</time>
      </trkpt>
      <trkpt lat="46.19065" lon="4.51579">
        <ele>567.59997558594</ele>
        <time>2019-08-27T14:47:06.000Z</time>
      </trkpt>
      <trkpt lat="46.19068" lon="4.5159">
        <ele>568</ele>
        <time>2019-08-27T14:47:08.000Z</time>
      </trkpt>
      <trkpt lat="46.1908" lon="4.51628">
        <ele>567.79998779297</ele>
        <time>2019-08-27T14:47:15.000Z</time>
      </trkpt>
      <trkpt lat="46.19082" lon="4.51633">
        <ele>567.59997558594</ele>
        <time>2019-08-27T14:47:16.000Z</time>
      </trkpt>
      <trkpt lat="46.19094" lon="4.51669">
        <ele>567.59997558594</ele>
        <time>2019-08-27T14:47:23.000Z</time>
      </trkpt>
      <trkpt lat="46.19104" lon="4.51686">
        <ele>568.59997558594</ele>
        <time>2019-08-27T14:47:27.000Z</time>
      </trkpt>
      <trkpt lat="46.19109" lon="4.51693">
        <ele>569.40002441406</ele>
        <time>2019-08-27T14:47:29.000Z</time>
      </trkpt>
      <trkpt lat="46.1912" lon="4.51702">
        <ele>570.79998779297</ele>
        <time>2019-08-27T14:47:32.000Z</time>
      </trkpt>
      <trkpt lat="46.19131" lon="4.51708">
        <ele>572</ele>
        <time>2019-08-27T14:47:35.000Z</time>
      </trkpt>
      <trkpt lat="46.19145" lon="4.51714">
        <ele>573.79998779297</ele>
        <time>2019-08-27T14:47:38.000Z</time>
      </trkpt>
      <trkpt lat="46.19157" lon="4.5172">
        <ele>573.40002441406</ele>
        <time>2019-08-27T14:47:41.000Z</time>
      </trkpt>
      <trkpt lat="46.19172" lon="4.51727">
        <ele>572.79998779297</ele>
        <time>2019-08-27T14:47:44.000Z</time>
      </trkpt>
      <trkpt lat="46.19187" lon="4.51735">
        <ele>573</ele>
        <time>2019-08-27T14:47:47.000Z</time>
      </trkpt>
      <trkpt lat="46.19228" lon="4.51753">
        <ele>573.79998779297</ele>
        <time>2019-08-27T14:47:55.000Z</time>
      </trkpt>
      <trkpt lat="46.1925" lon="4.51762">
        <ele>572.59997558594</ele>
        <time>2019-08-27T14:47:59.000Z</time>
      </trkpt>
      <trkpt lat="46.19267" lon="4.51768">
        <ele>572</ele>
        <time>2019-08-27T14:48:02.000Z</time>
      </trkpt>
      <trkpt lat="46.19294" lon="4.51776">
        <ele>571.20001220703</ele>
        <time>2019-08-27T14:48:07.000Z</time>
      </trkpt>
      <trkpt lat="46.193" lon="4.51777">
        <ele>571.20001220703</ele>
        <time>2019-08-27T14:48:08.000Z</time>
      </trkpt>
      <trkpt lat="46.19339" lon="4.51795">
        <ele>569.59997558594</ele>
        <time>2019-08-27T14:48:15.000Z</time>
      </trkpt>
      <trkpt lat="46.19347" lon="4.51803">
        <ele>569.20001220703</ele>
        <time>2019-08-27T14:48:17.000Z</time>
      </trkpt>
      <trkpt lat="46.19351" lon="4.51808">
        <ele>569</ele>
        <time>2019-08-27T14:48:18.000Z</time>
      </trkpt>
      <trkpt lat="46.19358" lon="4.5182">
        <ele>568.40002441406</ele>
        <time>2019-08-27T14:48:20.000Z</time>
      </trkpt>
      <trkpt lat="46.19361" lon="4.51826">
        <ele>568</ele>
        <time>2019-08-27T14:48:21.000Z</time>
      </trkpt>
      <trkpt lat="46.19364" lon="4.51833">
        <ele>567.59997558594</ele>
        <time>2019-08-27T14:48:22.000Z</time>
      </trkpt>
      <trkpt lat="46.19368" lon="4.51847">
        <ele>566</ele>
        <time>2019-08-27T14:48:24.000Z</time>
      </trkpt>
      <trkpt lat="46.19369" lon="4.51854">
        <ele>565</ele>
        <time>2019-08-27T14:48:25.000Z</time>
      </trkpt>
      <trkpt lat="46.19371" lon="4.51881">
        <ele>562.79998779297</ele>
        <time>2019-08-27T14:48:29.000Z</time>
      </trkpt>
      <trkpt lat="46.19372" lon="4.51888">
        <ele>563</ele>
        <time>2019-08-27T14:48:30.000Z</time>
      </trkpt>
      <trkpt lat="46.19373" lon="4.51906">
        <ele>563.20001220703</ele>
        <time>2019-08-27T14:48:33.000Z</time>
      </trkpt>
      <trkpt lat="46.19374" lon="4.51918">
        <ele>563.20001220703</ele>
        <time>2019-08-27T14:48:35.000Z</time>
      </trkpt>
      <trkpt lat="46.19376" lon="4.51928">
        <ele>563.40002441406</ele>
        <time>2019-08-27T14:48:37.000Z</time>
      </trkpt>
      <trkpt lat="46.19377" lon="4.51933">
        <ele>563.59997558594</ele>
        <time>2019-08-27T14:48:38.000Z</time>
      </trkpt>
      <trkpt lat="46.19388" lon="4.51968">
        <ele>565.40002441406</ele>
        <time>2019-08-27T14:48:45.000Z</time>
      </trkpt>
      <trkpt lat="46.1939" lon="4.51972">
        <ele>565.79998779297</ele>
        <time>2019-08-27T14:48:46.000Z</time>
      </trkpt>
      <trkpt lat="46.19404" lon="4.51994">
        <ele>567.40002441406</ele>
        <time>2019-08-27T14:48:52.000Z</time>
      </trkpt>
      <trkpt lat="46.19407" lon="4.51997">
        <ele>567.59997558594</ele>
        <time>2019-08-27T14:48:53.000Z</time>
      </trkpt>
      <trkpt lat="46.19418" lon="4.52008">
        <ele>568.59997558594</ele>
        <time>2019-08-27T14:48:57.000Z</time>
      </trkpt>
      <trkpt lat="46.19421" lon="4.52011">
        <ele>568.79998779297</ele>
        <time>2019-08-27T14:48:58.000Z</time>
      </trkpt>
      <trkpt lat="46.1944" lon="4.52023">
        <ele>569.79998779297</ele>
        <time>2019-08-27T14:49:04.000Z</time>
      </trkpt>
      <trkpt lat="46.19447" lon="4.52025">
        <ele>570.20001220703</ele>
        <time>2019-08-27T14:49:06.000Z</time>
      </trkpt>
      <trkpt lat="46.19467" lon="4.52026">
        <ele>571.20001220703</ele>
        <time>2019-08-27T14:49:12.000Z</time>
      </trkpt>
      <trkpt lat="46.19471" lon="4.52025">
        <ele>571.59997558594</ele>
        <time>2019-08-27T14:49:13.000Z</time>
      </trkpt>
      <trkpt lat="46.19499" lon="4.52016">
        <ele>575.20001220703</ele>
        <time>2019-08-27T14:49:21.000Z</time>
      </trkpt>
      <trkpt lat="46.1953" lon="4.52002">
        <ele>578.59997558594</ele>
        <time>2019-08-27T14:49:29.000Z</time>
      </trkpt>
      <trkpt lat="46.19542" lon="4.51998">
        <ele>581.40002441406</ele>
        <time>2019-08-27T14:49:32.000Z</time>
      </trkpt>
      <trkpt lat="46.19554" lon="4.51994">
        <ele>584.40002441406</ele>
        <time>2019-08-27T14:49:35.000Z</time>
      </trkpt>
      <trkpt lat="46.19581" lon="4.51985">
        <ele>587.59997558594</ele>
        <time>2019-08-27T14:49:42.000Z</time>
      </trkpt>
      <trkpt lat="46.19585" lon="4.51984">
        <ele>587.79998779297</ele>
        <time>2019-08-27T14:49:43.000Z</time>
      </trkpt>
      <trkpt lat="46.19604" lon="4.51979">
        <ele>589.79998779297</ele>
        <time>2019-08-27T14:49:48.000Z</time>
      </trkpt>
      <trkpt lat="46.19608" lon="4.51978">
        <ele>590.20001220703</ele>
        <time>2019-08-27T14:49:49.000Z</time>
      </trkpt>
      <trkpt lat="46.19627" lon="4.51974">
        <ele>592.79998779297</ele>
        <time>2019-08-27T14:49:54.000Z</time>
      </trkpt>
      <trkpt lat="46.1965" lon="4.5197">
        <ele>595.79998779297</ele>
        <time>2019-08-27T14:50:00.000Z</time>
      </trkpt>
      <trkpt lat="46.19654" lon="4.51969">
        <ele>596.20001220703</ele>
        <time>2019-08-27T14:50:01.000Z</time>
      </trkpt>
      <trkpt lat="46.19666" lon="4.51967">
        <ele>597.40002441406</ele>
        <time>2019-08-27T14:50:04.000Z</time>
      </trkpt>
      <trkpt lat="46.19677" lon="4.51965">
        <ele>598.59997558594</ele>
        <time>2019-08-27T14:50:07.000Z</time>
      </trkpt>
      <trkpt lat="46.19693" lon="4.51968">
        <ele>598.79998779297</ele>
        <time>2019-08-27T14:50:11.000Z</time>
      </trkpt>
      <trkpt lat="46.19701" lon="4.5197">
        <ele>598.59997558594</ele>
        <time>2019-08-27T14:50:13.000Z</time>
      </trkpt>
      <trkpt lat="46.19721" lon="4.51985">
        <ele>595.40002441406</ele>
        <time>2019-08-27T14:50:18.000Z</time>
      </trkpt>
      <trkpt lat="46.19733" lon="4.52009">
        <ele>589.79998779297</ele>
        <time>2019-08-27T14:50:23.000Z</time>
      </trkpt>
      <trkpt lat="46.1974" lon="4.52041">
        <ele>584.20001220703</ele>
        <time>2019-08-27T14:50:29.000Z</time>
      </trkpt>
      <trkpt lat="46.19745" lon="4.52075">
        <ele>585</ele>
        <time>2019-08-27T14:50:36.000Z</time>
      </trkpt>
      <trkpt lat="46.19749" lon="4.521">
        <ele>585.40002441406</ele>
        <time>2019-08-27T14:50:41.000Z</time>
      </trkpt>
      <trkpt lat="46.19749" lon="4.52105">
        <ele>585.40002441406</ele>
        <time>2019-08-27T14:50:42.000Z</time>
      </trkpt>
      <trkpt lat="46.19752" lon="4.52145">
        <ele>586.20001220703</ele>
        <time>2019-08-27T14:50:50.000Z</time>
      </trkpt>
      <trkpt lat="46.19752" lon="4.52172">
        <ele>586</ele>
        <time>2019-08-27T14:50:56.000Z</time>
      </trkpt>
      <trkpt lat="46.19752" lon="4.52181">
        <ele>585.79998779297</ele>
        <time>2019-08-27T14:50:58.000Z</time>
      </trkpt>
      <trkpt lat="46.19752" lon="4.522">
        <ele>585.59997558594</ele>
        <time>2019-08-27T14:51:02.000Z</time>
      </trkpt>
      <trkpt lat="46.19753" lon="4.52214">
        <ele>586.20001220703</ele>
        <time>2019-08-27T14:51:05.000Z</time>
      </trkpt>
      <trkpt lat="46.19762" lon="4.52251">
        <ele>587.79998779297</ele>
        <time>2019-08-27T14:51:13.000Z</time>
      </trkpt>
      <trkpt lat="46.1977" lon="4.52288">
        <ele>589</ele>
        <time>2019-08-27T14:51:21.000Z</time>
      </trkpt>
      <trkpt lat="46.19779" lon="4.52336">
        <ele>591.40002441406</ele>
        <time>2019-08-27T14:51:31.000Z</time>
      </trkpt>
      <trkpt lat="46.1978" lon="4.52341">
        <ele>591.40002441406</ele>
        <time>2019-08-27T14:51:32.000Z</time>
      </trkpt>
      <trkpt lat="46.19783" lon="4.5237">
        <ele>592</ele>
        <time>2019-08-27T14:51:38.000Z</time>
      </trkpt>
      <trkpt lat="46.19786" lon="4.52388">
        <ele>593.20001220703</ele>
        <time>2019-08-27T14:51:42.000Z</time>
      </trkpt>
      <trkpt lat="46.19788" lon="4.52407">
        <ele>594.20001220703</ele>
        <time>2019-08-27T14:51:46.000Z</time>
      </trkpt>
      <trkpt lat="46.1979" lon="4.52431">
        <ele>595.59997558594</ele>
        <time>2019-08-27T14:51:51.000Z</time>
      </trkpt>
      <trkpt lat="46.19792" lon="4.52451">
        <ele>595.40002441406</ele>
        <time>2019-08-27T14:51:55.000Z</time>
      </trkpt>
      <trkpt lat="46.19793" lon="4.52465">
        <ele>595.79998779297</ele>
        <time>2019-08-27T14:51:58.000Z</time>
      </trkpt>
      <trkpt lat="46.19795" lon="4.52485">
        <ele>596.59997558594</ele>
        <time>2019-08-27T14:52:02.000Z</time>
      </trkpt>
      <trkpt lat="46.19799" lon="4.52525">
        <ele>598</ele>
        <time>2019-08-27T14:52:10.000Z</time>
      </trkpt>
      <trkpt lat="46.19799" lon="4.5253">
        <ele>598.20001220703</ele>
        <time>2019-08-27T14:52:11.000Z</time>
      </trkpt>
      <trkpt lat="46.198" lon="4.52576">
        <ele>599.40002441406</ele>
        <time>2019-08-27T14:52:20.000Z</time>
      </trkpt>
      <trkpt lat="46.198" lon="4.52581">
        <ele>599.59997558594</ele>
        <time>2019-08-27T14:52:21.000Z</time>
      </trkpt>
      <trkpt lat="46.19799" lon="4.52608">
        <ele>599.79998779297</ele>
        <time>2019-08-27T14:52:27.000Z</time>
      </trkpt>
      <trkpt lat="46.19797" lon="4.52622">
        <ele>600</ele>
        <time>2019-08-27T14:52:30.000Z</time>
      </trkpt>
      <trkpt lat="46.19796" lon="4.52645">
        <ele>600.59997558594</ele>
        <time>2019-08-27T14:52:35.000Z</time>
      </trkpt>
      <trkpt lat="46.19795" lon="4.52678">
        <ele>601.20001220703</ele>
        <time>2019-08-27T14:52:42.000Z</time>
      </trkpt>
      <trkpt lat="46.19794" lon="4.52682">
        <ele>601.20001220703</ele>
        <time>2019-08-27T14:52:43.000Z</time>
      </trkpt>
      <trkpt lat="46.19791" lon="4.52715">
        <ele>600.79998779297</ele>
        <time>2019-08-27T14:52:50.000Z</time>
      </trkpt>
      <trkpt lat="46.1979" lon="4.52734">
        <ele>600.40002441406</ele>
        <time>2019-08-27T14:52:54.000Z</time>
      </trkpt>
      <trkpt lat="46.19789" lon="4.52744">
        <ele>600</ele>
        <time>2019-08-27T14:52:56.000Z</time>
      </trkpt>
      <trkpt lat="46.19786" lon="4.52773">
        <ele>599</ele>
        <time>2019-08-27T14:53:02.000Z</time>
      </trkpt>
      <trkpt lat="46.19784" lon="4.52813">
        <ele>600</ele>
        <time>2019-08-27T14:53:10.000Z</time>
      </trkpt>
      <trkpt lat="46.19784" lon="4.52832">
        <ele>601</ele>
        <time>2019-08-27T14:53:14.000Z</time>
      </trkpt>
      <trkpt lat="46.19783" lon="4.52851">
        <ele>601.79998779297</ele>
        <time>2019-08-27T14:53:18.000Z</time>
      </trkpt>
      <trkpt lat="46.19783" lon="4.52861">
        <ele>602</ele>
        <time>2019-08-27T14:53:20.000Z</time>
      </trkpt>
      <trkpt lat="46.19782" lon="4.52885">
        <ele>603.40002441406</ele>
        <time>2019-08-27T14:53:25.000Z</time>
      </trkpt>
      <trkpt lat="46.19782" lon="4.52919">
        <ele>606.40002441406</ele>
        <time>2019-08-27T14:53:32.000Z</time>
      </trkpt>
      <trkpt lat="46.19785" lon="4.5295">
        <ele>608.59997558594</ele>
        <time>2019-08-27T14:53:39.000Z</time>
      </trkpt>
      <trkpt lat="46.19787" lon="4.52964">
        <ele>609.40002441406</ele>
        <time>2019-08-27T14:53:42.000Z</time>
      </trkpt>
      <trkpt lat="46.19789" lon="4.52983">
        <ele>610.40002441406</ele>
        <time>2019-08-27T14:53:46.000Z</time>
      </trkpt>
      <trkpt lat="46.19794" lon="4.53001">
        <ele>612</ele>
        <time>2019-08-27T14:53:50.000Z</time>
      </trkpt>
      <trkpt lat="46.19798" lon="4.53019">
        <ele>613.59997558594</ele>
        <time>2019-08-27T14:53:54.000Z</time>
      </trkpt>
      <trkpt lat="46.19806" lon="4.53045">
        <ele>616</ele>
        <time>2019-08-27T14:54:00.000Z</time>
      </trkpt>
      <trkpt lat="46.19814" lon="4.53074">
        <ele>617.20001220703</ele>
        <time>2019-08-27T14:54:07.000Z</time>
      </trkpt>
      <trkpt lat="46.19823" lon="4.53095">
        <ele>618.79998779297</ele>
        <time>2019-08-27T14:54:12.000Z</time>
      </trkpt>
      <trkpt lat="46.19829" lon="4.53107">
        <ele>620</ele>
        <time>2019-08-27T14:54:15.000Z</time>
      </trkpt>
      <trkpt lat="46.19843" lon="4.53132">
        <ele>619.79998779297</ele>
        <time>2019-08-27T14:54:21.000Z</time>
      </trkpt>
      <trkpt lat="46.19845" lon="4.53135">
        <ele>619.79998779297</ele>
        <time>2019-08-27T14:54:22.000Z</time>
      </trkpt>
      <trkpt lat="46.19865" lon="4.5316">
        <ele>619.59997558594</ele>
        <time>2019-08-27T14:54:29.000Z</time>
      </trkpt>
      <trkpt lat="46.19881" lon="4.53179">
        <ele>620</ele>
        <time>2019-08-27T14:54:35.000Z</time>
      </trkpt>
      <trkpt lat="46.199" lon="4.53193">
        <ele>621.59997558594</ele>
        <time>2019-08-27T14:54:41.000Z</time>
      </trkpt>
      <trkpt lat="46.19918" lon="4.53212">
        <ele>621.20001220703</ele>
        <time>2019-08-27T14:54:47.000Z</time>
      </trkpt>
      <trkpt lat="46.19935" lon="4.53241">
        <ele>619.40002441406</ele>
        <time>2019-08-27T14:54:54.000Z</time>
      </trkpt>
      <trkpt lat="46.19951" lon="4.53274">
        <ele>616.59997558594</ele>
        <time>2019-08-27T14:55:02.000Z</time>
      </trkpt>
      <trkpt lat="46.19957" lon="4.53286">
        <ele>615.59997558594</ele>
        <time>2019-08-27T14:55:05.000Z</time>
      </trkpt>
      <trkpt lat="46.19964" lon="4.53301">
        <ele>615.40002441406</ele>
        <time>2019-08-27T14:55:09.000Z</time>
      </trkpt>
      <trkpt lat="46.19968" lon="4.53309">
        <ele>615.20001220703</ele>
        <time>2019-08-27T14:55:11.000Z</time>
      </trkpt>
      <trkpt lat="46.19979" lon="4.53335">
        <ele>614.79998779297</ele>
        <time>2019-08-27T14:55:18.000Z</time>
      </trkpt>
      <trkpt lat="46.19983" lon="4.53342">
        <ele>615.20001220703</ele>
        <time>2019-08-27T14:55:20.000Z</time>
      </trkpt>
      <trkpt lat="46.19999" lon="4.53376">
        <ele>616.40002441406</ele>
        <time>2019-08-27T14:55:29.000Z</time>
      </trkpt>
      <trkpt lat="46.20012" lon="4.53403">
        <ele>617.59997558594</ele>
        <time>2019-08-27T14:55:36.000Z</time>
      </trkpt>
      <trkpt lat="46.20017" lon="4.53414">
        <ele>618.40002441406</ele>
        <time>2019-08-27T14:55:39.000Z</time>
      </trkpt>
      <trkpt lat="46.20029" lon="4.53442">
        <ele>619.79998779297</ele>
        <time>2019-08-27T14:55:46.000Z</time>
      </trkpt>
      <trkpt lat="46.20035" lon="4.53464">
        <ele>620</ele>
        <time>2019-08-27T14:55:51.000Z</time>
      </trkpt>
      <trkpt lat="46.20036" lon="4.53474">
        <ele>619.79998779297</ele>
        <time>2019-08-27T14:55:53.000Z</time>
      </trkpt>
      <trkpt lat="46.20037" lon="4.53512">
        <ele>618</ele>
        <time>2019-08-27T14:56:01.000Z</time>
      </trkpt>
      <trkpt lat="46.20032" lon="4.53549">
        <ele>616.40002441406</ele>
        <time>2019-08-27T14:56:09.000Z</time>
      </trkpt>
      <trkpt lat="46.20027" lon="4.53575">
        <ele>615</ele>
        <time>2019-08-27T14:56:15.000Z</time>
      </trkpt>
      <trkpt lat="46.20025" lon="4.53588">
        <ele>615</ele>
        <time>2019-08-27T14:56:18.000Z</time>
      </trkpt>
      <trkpt lat="46.20021" lon="4.53613">
        <ele>615.79998779297</ele>
        <time>2019-08-27T14:56:24.000Z</time>
      </trkpt>
      <trkpt lat="46.2002" lon="4.53622">
        <ele>615.79998779297</ele>
        <time>2019-08-27T14:56:26.000Z</time>
      </trkpt>
      <trkpt lat="46.20018" lon="4.5366">
        <ele>615</ele>
        <time>2019-08-27T14:56:35.000Z</time>
      </trkpt>
      <trkpt lat="46.20024" lon="4.53684">
        <ele>617.20001220703</ele>
        <time>2019-08-27T14:56:41.000Z</time>
      </trkpt>
      <trkpt lat="46.2004" lon="4.53708">
        <ele>619</ele>
        <time>2019-08-27T14:56:48.000Z</time>
      </trkpt>
      <trkpt lat="46.20062" lon="4.53723">
        <ele>619.40002441406</ele>
        <time>2019-08-27T14:56:55.000Z</time>
      </trkpt>
      <trkpt lat="46.20084" lon="4.53732">
        <ele>620</ele>
        <time>2019-08-27T14:57:01.000Z</time>
      </trkpt>
      <trkpt lat="46.2011" lon="4.53735">
        <ele>621.40002441406</ele>
        <time>2019-08-27T14:57:08.000Z</time>
      </trkpt>
      <trkpt lat="46.20144" lon="4.53736">
        <ele>623.79998779297</ele>
        <time>2019-08-27T14:57:16.000Z</time>
      </trkpt>
      <trkpt lat="46.20175" lon="4.53735">
        <ele>620.59997558594</ele>
        <time>2019-08-27T14:57:24.000Z</time>
      </trkpt>
      <trkpt lat="46.20193" lon="4.53733">
        <ele>621.20001220703</ele>
        <time>2019-08-27T14:57:29.000Z</time>
      </trkpt>
      <trkpt lat="46.20196" lon="4.53733">
        <ele>621.40002441406</ele>
        <time>2019-08-27T14:57:30.000Z</time>
      </trkpt>
      <trkpt lat="46.20213" lon="4.53727">
        <ele>623</ele>
        <time>2019-08-27T14:57:35.000Z</time>
      </trkpt>
      <trkpt lat="46.20227" lon="4.53719">
        <ele>625.20001220703</ele>
        <time>2019-08-27T14:57:39.000Z</time>
      </trkpt>
      <trkpt lat="46.20231" lon="4.53716">
        <ele>625.79998779297</ele>
        <time>2019-08-27T14:57:40.000Z</time>
      </trkpt>
      <trkpt lat="46.2025" lon="4.53697">
        <ele>630.20001220703</ele>
        <time>2019-08-27T14:57:46.000Z</time>
      </trkpt>
      <trkpt lat="46.20269" lon="4.53679">
        <ele>633.79998779297</ele>
        <time>2019-08-27T14:57:52.000Z</time>
      </trkpt>
      <trkpt lat="46.20284" lon="4.5367">
        <ele>636</ele>
        <time>2019-08-27T14:57:56.000Z</time>
      </trkpt>
      <trkpt lat="46.20293" lon="4.53667">
        <ele>637</ele>
        <time>2019-08-27T14:57:58.000Z</time>
      </trkpt>
      <trkpt lat="46.20302" lon="4.53666">
        <ele>637.79998779297</ele>
        <time>2019-08-27T14:58:00.000Z</time>
      </trkpt>
      <trkpt lat="46.20307" lon="4.53667">
        <ele>638</ele>
        <time>2019-08-27T14:58:01.000Z</time>
      </trkpt>
      <trkpt lat="46.20326" lon="4.53667">
        <ele>638</ele>
        <time>2019-08-27T14:58:05.000Z</time>
      </trkpt>
      <trkpt lat="46.2034" lon="4.53666">
        <ele>637.79998779297</ele>
        <time>2019-08-27T14:58:08.000Z</time>
      </trkpt>
      <trkpt lat="46.20344" lon="4.53666">
        <ele>637.59997558594</ele>
        <time>2019-08-27T14:58:09.000Z</time>
      </trkpt>
      <trkpt lat="46.20353" lon="4.53667">
        <ele>637.20001220703</ele>
        <time>2019-08-27T14:58:11.000Z</time>
      </trkpt>
      <trkpt lat="46.20362" lon="4.53668">
        <ele>636.79998779297</ele>
        <time>2019-08-27T14:58:13.000Z</time>
      </trkpt>
      <trkpt lat="46.20366" lon="4.53669">
        <ele>636.40002441406</ele>
        <time>2019-08-27T14:58:14.000Z</time>
      </trkpt>
      <trkpt lat="46.20375" lon="4.53669">
        <ele>635.59997558594</ele>
        <time>2019-08-27T14:58:16.000Z</time>
      </trkpt>
      <trkpt lat="46.20396" lon="4.53671">
        <ele>633.59997558594</ele>
        <time>2019-08-27T14:58:21.000Z</time>
      </trkpt>
      <trkpt lat="46.2041" lon="4.53671">
        <ele>633.40002441406</ele>
        <time>2019-08-27T14:58:24.000Z</time>
      </trkpt>
      <trkpt lat="46.20432" lon="4.53673">
        <ele>632.79998779297</ele>
        <time>2019-08-27T14:58:29.000Z</time>
      </trkpt>
      <trkpt lat="46.20436" lon="4.53674">
        <ele>632.59997558594</ele>
        <time>2019-08-27T14:58:30.000Z</time>
      </trkpt>
      <trkpt lat="46.20445" lon="4.53674">
        <ele>632.40002441406</ele>
        <time>2019-08-27T14:58:32.000Z</time>
      </trkpt>
      <trkpt lat="46.20454" lon="4.53675">
        <ele>632.20001220703</ele>
        <time>2019-08-27T14:58:34.000Z</time>
      </trkpt>
      <trkpt lat="46.20475" lon="4.53678">
        <ele>629.79998779297</ele>
        <time>2019-08-27T14:58:39.000Z</time>
      </trkpt>
      <trkpt lat="46.20483" lon="4.5368">
        <ele>629.20001220703</ele>
        <time>2019-08-27T14:58:41.000Z</time>
      </trkpt>
      <trkpt lat="46.20496" lon="4.53681">
        <ele>628.79998779297</ele>
        <time>2019-08-27T14:58:44.000Z</time>
      </trkpt>
      <trkpt lat="46.205" lon="4.53682">
        <ele>628.59997558594</ele>
        <time>2019-08-27T14:58:45.000Z</time>
      </trkpt>
      <trkpt lat="46.20513" lon="4.53684">
        <ele>628.20001220703</ele>
        <time>2019-08-27T14:58:48.000Z</time>
      </trkpt>
      <trkpt lat="46.20517" lon="4.53684">
        <ele>628</ele>
        <time>2019-08-27T14:58:49.000Z</time>
      </trkpt>
      <trkpt lat="46.20522" lon="4.53685">
        <ele>627.79998779297</ele>
        <time>2019-08-27T14:58:50.000Z</time>
      </trkpt>
      <trkpt lat="46.20531" lon="4.53687">
        <ele>627.59997558594</ele>
        <time>2019-08-27T14:58:52.000Z</time>
      </trkpt>
      <trkpt lat="46.20549" lon="4.53689">
        <ele>627</ele>
        <time>2019-08-27T14:58:56.000Z</time>
      </trkpt>
      <trkpt lat="46.20584" lon="4.53691">
        <ele>626.59997558594</ele>
        <time>2019-08-27T14:59:03.000Z</time>
      </trkpt>
      <trkpt lat="46.20589" lon="4.53692">
        <ele>626.59997558594</ele>
        <time>2019-08-27T14:59:04.000Z</time>
      </trkpt>
      <trkpt lat="46.20599" lon="4.53694">
        <ele>626.40002441406</ele>
        <time>2019-08-27T14:59:06.000Z</time>
      </trkpt>
      <trkpt lat="46.20617" lon="4.537">
        <ele>626</ele>
        <time>2019-08-27T14:59:10.000Z</time>
      </trkpt>
      <trkpt lat="46.2064" lon="4.53709">
        <ele>625.79998779297</ele>
        <time>2019-08-27T14:59:16.000Z</time>
      </trkpt>
      <trkpt lat="46.20653" lon="4.53721">
        <ele>625.59997558594</ele>
        <time>2019-08-27T14:59:20.000Z</time>
      </trkpt>
      <trkpt lat="46.20667" lon="4.53735">
        <ele>625.59997558594</ele>
        <time>2019-08-27T14:59:24.000Z</time>
      </trkpt>
      <trkpt lat="46.2068" lon="4.53735">
        <ele>626</ele>
        <time>2019-08-27T14:59:27.000Z</time>
      </trkpt>
      <trkpt lat="46.20684" lon="4.53735">
        <ele>626</ele>
        <time>2019-08-27T14:59:28.000Z</time>
      </trkpt>
      <trkpt lat="46.20696" lon="4.5374">
        <ele>626</ele>
        <time>2019-08-27T14:59:31.000Z</time>
      </trkpt>
      <trkpt lat="46.20699" lon="4.53744">
        <ele>626</ele>
        <time>2019-08-27T14:59:32.000Z</time>
      </trkpt>
      <trkpt lat="46.20708" lon="4.53771">
        <ele>625.79998779297</ele>
        <time>2019-08-27T14:59:37.000Z</time>
      </trkpt>
      <trkpt lat="46.20708" lon="4.53783">
        <ele>625.20001220703</ele>
        <time>2019-08-27T14:59:39.000Z</time>
      </trkpt>
      <trkpt lat="46.20707" lon="4.53789">
        <ele>625.20001220703</ele>
        <time>2019-08-27T14:59:40.000Z</time>
      </trkpt>
      <trkpt lat="46.20706" lon="4.53801">
        <ele>625.20001220703</ele>
        <time>2019-08-27T14:59:42.000Z</time>
      </trkpt>
      <trkpt lat="46.20704" lon="4.53813">
        <ele>625.20001220703</ele>
        <time>2019-08-27T14:59:44.000Z</time>
      </trkpt>
      <trkpt lat="46.20702" lon="4.53839">
        <ele>625</ele>
        <time>2019-08-27T14:59:48.000Z</time>
      </trkpt>
      <trkpt lat="46.20703" lon="4.53845">
        <ele>624.79998779297</ele>
        <time>2019-08-27T14:59:49.000Z</time>
      </trkpt>
      <trkpt lat="46.20708" lon="4.53881">
        <ele>624</ele>
        <time>2019-08-27T14:59:55.000Z</time>
      </trkpt>
      <trkpt lat="46.2071" lon="4.53886">
        <ele>624</ele>
        <time>2019-08-27T14:59:56.000Z</time>
      </trkpt>
      <trkpt lat="46.20719" lon="4.53914">
        <ele>624</ele>
        <time>2019-08-27T15:00:01.000Z</time>
      </trkpt>
      <trkpt lat="46.20728" lon="4.53935">
        <ele>624.40002441406</ele>
        <time>2019-08-27T15:00:05.000Z</time>
      </trkpt>
      <trkpt lat="46.20733" lon="4.53945">
        <ele>624</ele>
        <time>2019-08-27T15:00:07.000Z</time>
      </trkpt>
      <trkpt lat="46.20741" lon="4.53961">
        <ele>624.40002441406</ele>
        <time>2019-08-27T15:00:10.000Z</time>
      </trkpt>
      <trkpt lat="46.20743" lon="4.53967">
        <ele>624.79998779297</ele>
        <time>2019-08-27T15:00:11.000Z</time>
      </trkpt>
      <trkpt lat="46.20747" lon="4.53992">
        <ele>625.20001220703</ele>
        <time>2019-08-27T15:00:15.000Z</time>
      </trkpt>
      <trkpt lat="46.20748" lon="4.54004">
        <ele>625.40002441406</ele>
        <time>2019-08-27T15:00:17.000Z</time>
      </trkpt>
      <trkpt lat="46.20748" lon="4.5404">
        <ele>626.20001220703</ele>
        <time>2019-08-27T15:00:23.000Z</time>
      </trkpt>
      <trkpt lat="46.20747" lon="4.54051">
        <ele>627.40002441406</ele>
        <time>2019-08-27T15:00:25.000Z</time>
      </trkpt>
      <trkpt lat="46.20747" lon="4.54078">
        <ele>629.20001220703</ele>
        <time>2019-08-27T15:00:30.000Z</time>
      </trkpt>
      <trkpt lat="46.20746" lon="4.54095">
        <ele>630.40002441406</ele>
        <time>2019-08-27T15:00:33.000Z</time>
      </trkpt>
      <trkpt lat="46.20745" lon="4.54126">
        <ele>632.79998779297</ele>
        <time>2019-08-27T15:00:39.000Z</time>
      </trkpt>
      <trkpt lat="46.20744" lon="4.54147">
        <ele>634.20001220703</ele>
        <time>2019-08-27T15:00:43.000Z</time>
      </trkpt>
      <trkpt lat="46.20743" lon="4.54178">
        <ele>636.40002441406</ele>
        <time>2019-08-27T15:00:49.000Z</time>
      </trkpt>
      <trkpt lat="46.20742" lon="4.54188">
        <ele>637</ele>
        <time>2019-08-27T15:00:51.000Z</time>
      </trkpt>
      <trkpt lat="46.20741" lon="4.54208">
        <ele>638.59997558594</ele>
        <time>2019-08-27T15:00:55.000Z</time>
      </trkpt>
      <trkpt lat="46.2074" lon="4.54228">
        <ele>639.79998779297</ele>
        <time>2019-08-27T15:00:59.000Z</time>
      </trkpt>
      <trkpt lat="46.2074" lon="4.54233">
        <ele>640.20001220703</ele>
        <time>2019-08-27T15:01:00.000Z</time>
      </trkpt>
      <trkpt lat="46.20739" lon="4.54254">
        <ele>641.20001220703</ele>
        <time>2019-08-27T15:01:04.000Z</time>
      </trkpt>
      <trkpt lat="46.20738" lon="4.54273">
        <ele>642.40002441406</ele>
        <time>2019-08-27T15:01:08.000Z</time>
      </trkpt>
      <trkpt lat="46.20737" lon="4.54296">
        <ele>643.79998779297</ele>
        <time>2019-08-27T15:01:13.000Z</time>
      </trkpt>
      <trkpt lat="46.20737" lon="4.54301">
        <ele>644.20001220703</ele>
        <time>2019-08-27T15:01:14.000Z</time>
      </trkpt>
      <trkpt lat="46.20736" lon="4.5433">
        <ele>646.59997558594</ele>
        <time>2019-08-27T15:01:20.000Z</time>
      </trkpt>
      <trkpt lat="46.20736" lon="4.5435">
        <ele>648.20001220703</ele>
        <time>2019-08-27T15:01:24.000Z</time>
      </trkpt>
      <trkpt lat="46.20736" lon="4.5437">
        <ele>649.79998779297</ele>
        <time>2019-08-27T15:01:28.000Z</time>
      </trkpt>
      <trkpt lat="46.20737" lon="4.54385">
        <ele>650.59997558594</ele>
        <time>2019-08-27T15:01:31.000Z</time>
      </trkpt>
      <trkpt lat="46.20737" lon="4.5439">
        <ele>650.79998779297</ele>
        <time>2019-08-27T15:01:32.000Z</time>
      </trkpt>
      <trkpt lat="46.2074" lon="4.54415">
        <ele>652</ele>
        <time>2019-08-27T15:01:37.000Z</time>
      </trkpt>
      <trkpt lat="46.20742" lon="4.54425">
        <ele>652.59997558594</ele>
        <time>2019-08-27T15:01:39.000Z</time>
      </trkpt>
      <trkpt lat="46.20748" lon="4.54452">
        <ele>654</ele>
        <time>2019-08-27T15:01:45.000Z</time>
      </trkpt>
      <trkpt lat="46.20749" lon="4.54457">
        <ele>653.79998779297</ele>
        <time>2019-08-27T15:01:46.000Z</time>
      </trkpt>
      <trkpt lat="46.20752" lon="4.54472">
        <ele>653.40002441406</ele>
        <time>2019-08-27T15:01:49.000Z</time>
      </trkpt>
      <trkpt lat="46.20756" lon="4.54502">
        <ele>650.79998779297</ele>
        <time>2019-08-27T15:01:55.000Z</time>
      </trkpt>
      <trkpt lat="46.20756" lon="4.54527">
        <ele>648</ele>
        <time>2019-08-27T15:02:00.000Z</time>
      </trkpt>
      <trkpt lat="46.20754" lon="4.54547">
        <ele>647.40002441406</ele>
        <time>2019-08-27T15:02:04.000Z</time>
      </trkpt>
      <trkpt lat="46.20751" lon="4.54561">
        <ele>647.40002441406</ele>
        <time>2019-08-27T15:02:07.000Z</time>
      </trkpt>
      <trkpt lat="46.20748" lon="4.5458">
        <ele>647</ele>
        <time>2019-08-27T15:02:11.000Z</time>
      </trkpt>
      <trkpt lat="46.20744" lon="4.54604">
        <ele>646.59997558594</ele>
        <time>2019-08-27T15:02:16.000Z</time>
      </trkpt>
      <trkpt lat="46.20742" lon="4.54623">
        <ele>646.79998779297</ele>
        <time>2019-08-27T15:02:20.000Z</time>
      </trkpt>
      <trkpt lat="46.20741" lon="4.54643">
        <ele>647.59997558594</ele>
        <time>2019-08-27T15:02:24.000Z</time>
      </trkpt>
      <trkpt lat="46.20741" lon="4.54658">
        <ele>648.40002441406</ele>
        <time>2019-08-27T15:02:27.000Z</time>
      </trkpt>
      <trkpt lat="46.20741" lon="4.54673">
        <ele>649</ele>
        <time>2019-08-27T15:02:30.000Z</time>
      </trkpt>
      <trkpt lat="46.20742" lon="4.54702">
        <ele>650.59997558594</ele>
        <time>2019-08-27T15:02:36.000Z</time>
      </trkpt>
      <trkpt lat="46.20742" lon="4.54712">
        <ele>651</ele>
        <time>2019-08-27T15:02:38.000Z</time>
      </trkpt>
      <trkpt lat="46.20743" lon="4.54736">
        <ele>651.79998779297</ele>
        <time>2019-08-27T15:02:43.000Z</time>
      </trkpt>
      <trkpt lat="46.20744" lon="4.54741">
        <ele>652</ele>
        <time>2019-08-27T15:02:44.000Z</time>
      </trkpt>
      <trkpt lat="46.20746" lon="4.54776">
        <ele>653.40002441406</ele>
        <time>2019-08-27T15:02:51.000Z</time>
      </trkpt>
      <trkpt lat="46.20747" lon="4.54785">
        <ele>653.79998779297</ele>
        <time>2019-08-27T15:02:53.000Z</time>
      </trkpt>
      <trkpt lat="46.20748" lon="4.54809">
        <ele>654.40002441406</ele>
        <time>2019-08-27T15:02:58.000Z</time>
      </trkpt>
      <trkpt lat="46.2075" lon="4.54829">
        <ele>654.59997558594</ele>
        <time>2019-08-27T15:03:02.000Z</time>
      </trkpt>
      <trkpt lat="46.20754" lon="4.54862">
        <ele>655.20001220703</ele>
        <time>2019-08-27T15:03:09.000Z</time>
      </trkpt>
      <trkpt lat="46.20756" lon="4.54876">
        <ele>655</ele>
        <time>2019-08-27T15:03:12.000Z</time>
      </trkpt>
      <trkpt lat="46.2076" lon="4.54894">
        <ele>654.59997558594</ele>
        <time>2019-08-27T15:03:16.000Z</time>
      </trkpt>
      <trkpt lat="46.20763" lon="4.54908">
        <ele>654.79998779297</ele>
        <time>2019-08-27T15:03:19.000Z</time>
      </trkpt>
      <trkpt lat="46.20769" lon="4.5493">
        <ele>655.79998779297</ele>
        <time>2019-08-27T15:03:24.000Z</time>
      </trkpt>
      <trkpt lat="46.20774" lon="4.54943">
        <ele>656.59997558594</ele>
        <time>2019-08-27T15:03:27.000Z</time>
      </trkpt>
      <trkpt lat="46.20792" lon="4.54971">
        <ele>657.40002441406</ele>
        <time>2019-08-27T15:03:35.000Z</time>
      </trkpt>
      <trkpt lat="46.20795" lon="4.54973">
        <ele>657.79998779297</ele>
        <time>2019-08-27T15:03:36.000Z</time>
      </trkpt>
      <trkpt lat="46.20816" lon="4.54987">
        <ele>659.40002441406</ele>
        <time>2019-08-27T15:03:43.000Z</time>
      </trkpt>
      <trkpt lat="46.20826" lon="4.54987">
        <ele>659.79998779297</ele>
        <time>2019-08-27T15:03:46.000Z</time>
      </trkpt>
      <trkpt lat="46.20834" lon="4.54987">
        <ele>660.20001220703</ele>
        <time>2019-08-27T15:03:48.000Z</time>
      </trkpt>
      <trkpt lat="46.20837" lon="4.54986">
        <ele>660.40002441406</ele>
        <time>2019-08-27T15:03:49.000Z</time>
      </trkpt>
      <trkpt lat="46.20849" lon="4.54978">
        <ele>662.40002441406</ele>
        <time>2019-08-27T15:03:53.000Z</time>
      </trkpt>
      <trkpt lat="46.20862" lon="4.54961">
        <ele>666.20001220703</ele>
        <time>2019-08-27T15:03:58.000Z</time>
      </trkpt>
      <trkpt lat="46.20867" lon="4.54953">
        <ele>668</ele>
        <time>2019-08-27T15:04:00.000Z</time>
      </trkpt>
      <trkpt lat="46.20869" lon="4.54949">
        <ele>668.59997558594</ele>
        <time>2019-08-27T15:04:01.000Z</time>
      </trkpt>
      <trkpt lat="46.20879" lon="4.54934">
        <ele>670.79998779297</ele>
        <time>2019-08-27T15:04:05.000Z</time>
      </trkpt>
      <trkpt lat="46.20898" lon="4.54924">
        <ele>676</ele>
        <time>2019-08-27T15:04:10.000Z</time>
      </trkpt>
      <trkpt lat="46.20916" lon="4.54928">
        <ele>681.79998779297</ele>
        <time>2019-08-27T15:04:15.000Z</time>
      </trkpt>
      <trkpt lat="46.20929" lon="4.54937">
        <ele>685.20001220703</ele>
        <time>2019-08-27T15:04:19.000Z</time>
      </trkpt>
      <trkpt lat="46.20938" lon="4.54946">
        <ele>687</ele>
        <time>2019-08-27T15:04:22.000Z</time>
      </trkpt>
      <trkpt lat="46.20941" lon="4.54948">
        <ele>687.79998779297</ele>
        <time>2019-08-27T15:04:23.000Z</time>
      </trkpt>
      <trkpt lat="46.20964" lon="4.54975">
        <ele>691.40002441406</ele>
        <time>2019-08-27T15:04:31.000Z</time>
      </trkpt>
      <trkpt lat="46.20969" lon="4.54984">
        <ele>691.59997558594</ele>
        <time>2019-08-27T15:04:33.000Z</time>
      </trkpt>
      <trkpt lat="46.20976" lon="4.55003">
        <ele>690.59997558594</ele>
        <time>2019-08-27T15:04:37.000Z</time>
      </trkpt>
      <trkpt lat="46.20981" lon="4.55033">
        <ele>687</ele>
        <time>2019-08-27T15:04:43.000Z</time>
      </trkpt>
      <trkpt lat="46.2098" lon="4.55071">
        <ele>686.59997558594</ele>
        <time>2019-08-27T15:04:50.000Z</time>
      </trkpt>
      <trkpt lat="46.20973" lon="4.55103">
        <ele>684</ele>
        <time>2019-08-27T15:04:56.000Z</time>
      </trkpt>
      <trkpt lat="46.20962" lon="4.55118">
        <ele>680.79998779297</ele>
        <time>2019-08-27T15:05:00.000Z</time>
      </trkpt>
      <trkpt lat="46.20959" lon="4.55121">
        <ele>680.20001220703</ele>
        <time>2019-08-27T15:05:01.000Z</time>
      </trkpt>
      <trkpt lat="46.20947" lon="4.55131">
        <ele>677.79998779297</ele>
        <time>2019-08-27T15:05:05.000Z</time>
      </trkpt>
      <trkpt lat="46.20938" lon="4.5514">
        <ele>676.20001220703</ele>
        <time>2019-08-27T15:05:08.000Z</time>
      </trkpt>
      <trkpt lat="46.20923" lon="4.55161">
        <ele>674.40002441406</ele>
        <time>2019-08-27T15:05:14.000Z</time>
      </trkpt>
      <trkpt lat="46.20921" lon="4.55165">
        <ele>674.20001220703</ele>
        <time>2019-08-27T15:05:15.000Z</time>
      </trkpt>
      <trkpt lat="46.20915" lon="4.55177">
        <ele>674.20001220703</ele>
        <time>2019-08-27T15:05:18.000Z</time>
      </trkpt>
      <trkpt lat="46.20906" lon="4.55205">
        <ele>675.20001220703</ele>
        <time>2019-08-27T15:05:24.000Z</time>
      </trkpt>
      <trkpt lat="46.20903" lon="4.55219">
        <ele>676.40002441406</ele>
        <time>2019-08-27T15:05:27.000Z</time>
      </trkpt>
      <trkpt lat="46.20899" lon="4.55248">
        <ele>680.20001220703</ele>
        <time>2019-08-27T15:05:33.000Z</time>
      </trkpt>
      <trkpt lat="46.20899" lon="4.55267">
        <ele>683.40002441406</ele>
        <time>2019-08-27T15:05:37.000Z</time>
      </trkpt>
      <trkpt lat="46.20899" lon="4.55276">
        <ele>684.79998779297</ele>
        <time>2019-08-27T15:05:39.000Z</time>
      </trkpt>
      <trkpt lat="46.209" lon="4.553">
        <ele>687.59997558594</ele>
        <time>2019-08-27T15:05:44.000Z</time>
      </trkpt>
      <trkpt lat="46.20901" lon="4.55309">
        <ele>688.40002441406</ele>
        <time>2019-08-27T15:05:46.000Z</time>
      </trkpt>
      <trkpt lat="46.209" lon="4.55322">
        <ele>689</ele>
        <time>2019-08-27T15:05:49.000Z</time>
      </trkpt>
      <trkpt lat="46.20897" lon="4.55332">
        <ele>689</ele>
        <time>2019-08-27T15:05:51.000Z</time>
      </trkpt>
      <trkpt lat="46.20893" lon="4.55341">
        <ele>688.40002441406</ele>
        <time>2019-08-27T15:05:53.000Z</time>
      </trkpt>
      <trkpt lat="46.20889" lon="4.5535">
        <ele>687.59997558594</ele>
        <time>2019-08-27T15:05:55.000Z</time>
      </trkpt>
      <trkpt lat="46.20875" lon="4.55366">
        <ele>685.79998779297</ele>
        <time>2019-08-27T15:06:00.000Z</time>
      </trkpt>
      <trkpt lat="46.2087" lon="4.55372">
        <ele>685.20001220703</ele>
        <time>2019-08-27T15:06:02.000Z</time>
      </trkpt>
      <trkpt lat="46.20858" lon="4.55383">
        <ele>684.20001220703</ele>
        <time>2019-08-27T15:06:06.000Z</time>
      </trkpt>
      <trkpt lat="46.20853" lon="4.55389">
        <ele>683.59997558594</ele>
        <time>2019-08-27T15:06:08.000Z</time>
      </trkpt>
      <trkpt lat="46.2085" lon="4.55392">
        <ele>683.40002441406</ele>
        <time>2019-08-27T15:06:09.000Z</time>
      </trkpt>
      <trkpt lat="46.20845" lon="4.55397">
        <ele>682.79998779297</ele>
        <time>2019-08-27T15:06:11.000Z</time>
      </trkpt>
      <trkpt lat="46.20839" lon="4.55403">
        <ele>682.59997558594</ele>
        <time>2019-08-27T15:06:13.000Z</time>
      </trkpt>
      <trkpt lat="46.2083" lon="4.55411">
        <ele>682.59997558594</ele>
        <time>2019-08-27T15:06:16.000Z</time>
      </trkpt>
      <trkpt lat="46.20815" lon="4.55424">
        <ele>682</ele>
        <time>2019-08-27T15:06:21.000Z</time>
      </trkpt>
      <trkpt lat="46.20809" lon="4.55429">
        <ele>682.40002441406</ele>
        <time>2019-08-27T15:06:23.000Z</time>
      </trkpt>
      <trkpt lat="46.20807" lon="4.55432">
        <ele>682.59997558594</ele>
        <time>2019-08-27T15:06:24.000Z</time>
      </trkpt>
      <trkpt lat="46.20792" lon="4.55443">
        <ele>682.59997558594</ele>
        <time>2019-08-27T15:06:29.000Z</time>
      </trkpt>
      <trkpt lat="46.20787" lon="4.55449">
        <ele>682.20001220703</ele>
        <time>2019-08-27T15:06:31.000Z</time>
      </trkpt>
      <trkpt lat="46.20782" lon="4.55454">
        <ele>682.40002441406</ele>
        <time>2019-08-27T15:06:33.000Z</time>
      </trkpt>
      <trkpt lat="46.20772" lon="4.55467">
        <ele>683.40002441406</ele>
        <time>2019-08-27T15:06:37.000Z</time>
      </trkpt>
      <trkpt lat="46.2077" lon="4.55471">
        <ele>684</ele>
        <time>2019-08-27T15:06:38.000Z</time>
      </trkpt>
      <trkpt lat="46.20761" lon="4.55492">
        <ele>686.59997558594</ele>
        <time>2019-08-27T15:06:43.000Z</time>
      </trkpt>
      <trkpt lat="46.20759" lon="4.55496">
        <ele>686.79998779297</ele>
        <time>2019-08-27T15:06:44.000Z</time>
      </trkpt>
      <trkpt lat="46.2075" lon="4.55522">
        <ele>688.59997558594</ele>
        <time>2019-08-27T15:06:50.000Z</time>
      </trkpt>
      <trkpt lat="46.20747" lon="4.55531">
        <ele>689.20001220703</ele>
        <time>2019-08-27T15:06:52.000Z</time>
      </trkpt>
      <trkpt lat="46.20743" lon="4.55545">
        <ele>690.59997558594</ele>
        <time>2019-08-27T15:06:55.000Z</time>
      </trkpt>
      <trkpt lat="46.20736" lon="4.55572">
        <ele>692.79998779297</ele>
        <time>2019-08-27T15:07:01.000Z</time>
      </trkpt>
      <trkpt lat="46.20731" lon="4.55613">
        <ele>697</ele>
        <time>2019-08-27T15:07:10.000Z</time>
      </trkpt>
      <trkpt lat="46.20728" lon="4.55641">
        <ele>698</ele>
        <time>2019-08-27T15:07:16.000Z</time>
      </trkpt>
      <trkpt lat="46.20727" lon="4.55668">
        <ele>698.79998779297</ele>
        <time>2019-08-27T15:07:22.000Z</time>
      </trkpt>
      <trkpt lat="46.20725" lon="4.55702">
        <ele>700</ele>
        <time>2019-08-27T15:07:29.000Z</time>
      </trkpt>
      <trkpt lat="46.20722" lon="4.55735">
        <ele>701.20001220703</ele>
        <time>2019-08-27T15:07:36.000Z</time>
      </trkpt>
      <trkpt lat="46.20718" lon="4.55759">
        <ele>701.20001220703</ele>
        <time>2019-08-27T15:07:41.000Z</time>
      </trkpt>
      <trkpt lat="46.20717" lon="4.55763">
        <ele>701.20001220703</ele>
        <time>2019-08-27T15:07:42.000Z</time>
      </trkpt>
      <trkpt lat="46.2071" lon="4.55793">
        <ele>699.59997558594</ele>
        <time>2019-08-27T15:07:48.000Z</time>
      </trkpt>
      <trkpt lat="46.20703" lon="4.55818">
        <ele>697.79998779297</ele>
        <time>2019-08-27T15:07:53.000Z</time>
      </trkpt>
      <trkpt lat="46.20697" lon="4.55836">
        <ele>696.59997558594</ele>
        <time>2019-08-27T15:07:57.000Z</time>
      </trkpt>
      <trkpt lat="46.20696" lon="4.55841">
        <ele>696.59997558594</ele>
        <time>2019-08-27T15:07:58.000Z</time>
      </trkpt>
      <trkpt lat="46.20691" lon="4.55864">
        <ele>697.79998779297</ele>
        <time>2019-08-27T15:08:03.000Z</time>
      </trkpt>
      <trkpt lat="46.2069" lon="4.55868">
        <ele>698</ele>
        <time>2019-08-27T15:08:04.000Z</time>
      </trkpt>
      <trkpt lat="46.20683" lon="4.55901">
        <ele>701</ele>
        <time>2019-08-27T15:08:11.000Z</time>
      </trkpt>
      <trkpt lat="46.20681" lon="4.5591">
        <ele>702</ele>
        <time>2019-08-27T15:08:13.000Z</time>
      </trkpt>
      <trkpt lat="46.20674" lon="4.55934">
        <ele>704.79998779297</ele>
        <time>2019-08-27T15:08:18.000Z</time>
      </trkpt>
      <trkpt lat="46.20661" lon="4.55962">
        <ele>707.20001220703</ele>
        <time>2019-08-27T15:08:25.000Z</time>
      </trkpt>
      <trkpt lat="46.20659" lon="4.55966">
        <ele>707.40002441406</ele>
        <time>2019-08-27T15:08:26.000Z</time>
      </trkpt>
      <trkpt lat="46.2065" lon="4.55981">
        <ele>707.59997558594</ele>
        <time>2019-08-27T15:08:30.000Z</time>
      </trkpt>
      <trkpt lat="46.20642" lon="4.55996">
        <ele>708</ele>
        <time>2019-08-27T15:08:34.000Z</time>
      </trkpt>
      <trkpt lat="46.20638" lon="4.56003">
        <ele>708</ele>
        <time>2019-08-27T15:08:36.000Z</time>
      </trkpt>
      <trkpt lat="46.20632" lon="4.56015">
        <ele>708.20001220703</ele>
        <time>2019-08-27T15:08:39.000Z</time>
      </trkpt>
      <trkpt lat="46.20628" lon="4.56024">
        <ele>708.59997558594</ele>
        <time>2019-08-27T15:08:41.000Z</time>
      </trkpt>
      <trkpt lat="46.20622" lon="4.56041">
        <ele>709.40002441406</ele>
        <time>2019-08-27T15:08:45.000Z</time>
      </trkpt>
      <trkpt lat="46.20619" lon="4.56049">
        <ele>709.40002441406</ele>
        <time>2019-08-27T15:08:47.000Z</time>
      </trkpt>
      <trkpt lat="46.20618" lon="4.56053">
        <ele>709.40002441406</ele>
        <time>2019-08-27T15:08:48.000Z</time>
      </trkpt>
      <trkpt lat="46.20615" lon="4.56068">
        <ele>709.79998779297</ele>
        <time>2019-08-27T15:08:51.000Z</time>
      </trkpt>
      <trkpt lat="46.20613" lon="4.56081">
        <ele>710.40002441406</ele>
        <time>2019-08-27T15:08:54.000Z</time>
      </trkpt>
      <trkpt lat="46.20613" lon="4.56086">
        <ele>710.79998779297</ele>
        <time>2019-08-27T15:08:55.000Z</time>
      </trkpt>
      <trkpt lat="46.20611" lon="4.56117">
        <ele>714.40002441406</ele>
        <time>2019-08-27T15:09:01.000Z</time>
      </trkpt>
      <trkpt lat="46.2061" lon="4.56122">
        <ele>714.20001220703</ele>
        <time>2019-08-27T15:09:02.000Z</time>
      </trkpt>
      <trkpt lat="46.2061" lon="4.56153">
        <ele>713.59997558594</ele>
        <time>2019-08-27T15:09:08.000Z</time>
      </trkpt>
      <trkpt lat="46.20611" lon="4.56173">
        <ele>714.20001220703</ele>
        <time>2019-08-27T15:09:12.000Z</time>
      </trkpt>
      <trkpt lat="46.20612" lon="4.56184">
        <ele>715.40002441406</ele>
        <time>2019-08-27T15:09:14.000Z</time>
      </trkpt>
      <trkpt lat="46.20619" lon="4.56213">
        <ele>717.59997558594</ele>
        <time>2019-08-27T15:09:20.000Z</time>
      </trkpt>
      <trkpt lat="46.20626" lon="4.5623">
        <ele>717.59997558594</ele>
        <time>2019-08-27T15:09:24.000Z</time>
      </trkpt>
      <trkpt lat="46.20636" lon="4.56245">
        <ele>718</ele>
        <time>2019-08-27T15:09:28.000Z</time>
      </trkpt>
      <trkpt lat="46.20647" lon="4.56261">
        <ele>718.59997558594</ele>
        <time>2019-08-27T15:09:32.000Z</time>
      </trkpt>
      <trkpt lat="46.20652" lon="4.56269">
        <ele>718.40002441406</ele>
        <time>2019-08-27T15:09:34.000Z</time>
      </trkpt>
      <trkpt lat="46.20659" lon="4.56295">
        <ele>717.20001220703</ele>
        <time>2019-08-27T15:09:39.000Z</time>
      </trkpt>
      <trkpt lat="46.2066" lon="4.56312">
        <ele>716.59997558594</ele>
        <time>2019-08-27T15:09:42.000Z</time>
      </trkpt>
      <trkpt lat="46.20659" lon="4.56328">
        <ele>716</ele>
        <time>2019-08-27T15:09:45.000Z</time>
      </trkpt>
      <trkpt lat="46.20656" lon="4.56345">
        <ele>715.20001220703</ele>
        <time>2019-08-27T15:09:48.000Z</time>
      </trkpt>
      <trkpt lat="46.20652" lon="4.56356">
        <ele>714.59997558594</ele>
        <time>2019-08-27T15:09:50.000Z</time>
      </trkpt>
      <trkpt lat="46.2065" lon="4.56361">
        <ele>714.40002441406</ele>
        <time>2019-08-27T15:09:51.000Z</time>
      </trkpt>
      <trkpt lat="46.20641" lon="4.5638">
        <ele>713.79998779297</ele>
        <time>2019-08-27T15:09:55.000Z</time>
      </trkpt>
      <trkpt lat="46.20635" lon="4.56389">
        <ele>713.59997558594</ele>
        <time>2019-08-27T15:09:57.000Z</time>
      </trkpt>
      <trkpt lat="46.20629" lon="4.56397">
        <ele>713.20001220703</ele>
        <time>2019-08-27T15:09:59.000Z</time>
      </trkpt>
      <trkpt lat="46.20618" lon="4.56412">
        <ele>712.79998779297</ele>
        <time>2019-08-27T15:10:03.000Z</time>
      </trkpt>
      <trkpt lat="46.20606" lon="4.56425">
        <ele>712.59997558594</ele>
        <time>2019-08-27T15:10:07.000Z</time>
      </trkpt>
      <trkpt lat="46.20592" lon="4.5644">
        <ele>712.40002441406</ele>
        <time>2019-08-27T15:10:12.000Z</time>
      </trkpt>
      <trkpt lat="46.20584" lon="4.56449">
        <ele>712.20001220703</ele>
        <time>2019-08-27T15:10:15.000Z</time>
      </trkpt>
      <trkpt lat="46.2057" lon="4.56465">
        <ele>711.40002441406</ele>
        <time>2019-08-27T15:10:20.000Z</time>
      </trkpt>
      <trkpt lat="46.20568" lon="4.56468">
        <ele>711.20001220703</ele>
        <time>2019-08-27T15:10:21.000Z</time>
      </trkpt>
      <trkpt lat="46.20555" lon="4.56484">
        <ele>711.20001220703</ele>
        <time>2019-08-27T15:10:26.000Z</time>
      </trkpt>
      <trkpt lat="46.20552" lon="4.56487">
        <ele>711.20001220703</ele>
        <time>2019-08-27T15:10:27.000Z</time>
      </trkpt>
      <trkpt lat="46.20537" lon="4.5651">
        <ele>711.40002441406</ele>
        <time>2019-08-27T15:10:34.000Z</time>
      </trkpt>
      <trkpt lat="46.20534" lon="4.56517">
        <ele>711.59997558594</ele>
        <time>2019-08-27T15:10:36.000Z</time>
      </trkpt>
      <trkpt lat="46.20527" lon="4.56532">
        <ele>712.20001220703</ele>
        <time>2019-08-27T15:10:40.000Z</time>
      </trkpt>
      <trkpt lat="46.20524" lon="4.56539">
        <ele>712.59997558594</ele>
        <time>2019-08-27T15:10:42.000Z</time>
      </trkpt>
      <trkpt lat="46.20517" lon="4.56557">
        <ele>713.59997558594</ele>
        <time>2019-08-27T15:10:47.000Z</time>
      </trkpt>
      <trkpt lat="46.20515" lon="4.56561">
        <ele>713.79998779297</ele>
        <time>2019-08-27T15:10:48.000Z</time>
      </trkpt>
      <trkpt lat="46.20512" lon="4.56567">
        <ele>714.20001220703</ele>
        <time>2019-08-27T15:10:50.000Z</time>
      </trkpt>
      <trkpt lat="46.20504" lon="4.56587">
        <ele>715.20001220703</ele>
        <time>2019-08-27T15:10:56.000Z</time>
      </trkpt>
      <trkpt lat="46.20498" lon="4.566">
        <ele>715.79998779297</ele>
        <time>2019-08-27T15:11:00.000Z</time>
      </trkpt>
      <trkpt lat="46.20493" lon="4.56615">
        <ele>716.59997558594</ele>
        <time>2019-08-27T15:11:04.000Z</time>
      </trkpt>
      <trkpt lat="46.20486" lon="4.56639">
        <ele>717.59997558594</ele>
        <time>2019-08-27T15:11:10.000Z</time>
      </trkpt>
      <trkpt lat="46.20485" lon="4.56647">
        <ele>718</ele>
        <time>2019-08-27T15:11:12.000Z</time>
      </trkpt>
      <trkpt lat="46.20481" lon="4.56668">
        <ele>718.79998779297</ele>
        <time>2019-08-27T15:11:17.000Z</time>
      </trkpt>
      <trkpt lat="46.20481" lon="4.56672">
        <ele>719</ele>
        <time>2019-08-27T15:11:18.000Z</time>
      </trkpt>
      <trkpt lat="46.20481" lon="4.56688">
        <ele>719.40002441406</ele>
        <time>2019-08-27T15:11:22.000Z</time>
      </trkpt>
      <trkpt lat="46.20482" lon="4.567">
        <ele>719.59997558594</ele>
        <time>2019-08-27T15:11:25.000Z</time>
      </trkpt>
      <trkpt lat="46.20482" lon="4.56708">
        <ele>719.79998779297</ele>
        <time>2019-08-27T15:11:27.000Z</time>
      </trkpt>
      <trkpt lat="46.20483" lon="4.5673">
        <ele>720.59997558594</ele>
        <time>2019-08-27T15:11:32.000Z</time>
      </trkpt>
      <trkpt lat="46.20484" lon="4.56734">
        <ele>720.59997558594</ele>
        <time>2019-08-27T15:11:33.000Z</time>
      </trkpt>
      <trkpt lat="46.20485" lon="4.5675">
        <ele>721</ele>
        <time>2019-08-27T15:11:37.000Z</time>
      </trkpt>
      <trkpt lat="46.20486" lon="4.56771">
        <ele>721.59997558594</ele>
        <time>2019-08-27T15:11:42.000Z</time>
      </trkpt>
      <trkpt lat="46.20487" lon="4.56783">
        <ele>722</ele>
        <time>2019-08-27T15:11:45.000Z</time>
      </trkpt>
      <trkpt lat="46.20488" lon="4.5681">
        <ele>722.59997558594</ele>
        <time>2019-08-27T15:11:52.000Z</time>
      </trkpt>
      <trkpt lat="46.20488" lon="4.56814">
        <ele>722.79998779297</ele>
        <time>2019-08-27T15:11:53.000Z</time>
      </trkpt>
      <trkpt lat="46.20489" lon="4.56842">
        <ele>723.59997558594</ele>
        <time>2019-08-27T15:12:00.000Z</time>
      </trkpt>
      <trkpt lat="46.2049" lon="4.56866">
        <ele>724.40002441406</ele>
        <time>2019-08-27T15:12:06.000Z</time>
      </trkpt>
      <trkpt lat="46.2049" lon="4.56878">
        <ele>724.79998779297</ele>
        <time>2019-08-27T15:12:09.000Z</time>
      </trkpt>
      <trkpt lat="46.2049" lon="4.5691">
        <ele>726.59997558594</ele>
        <time>2019-08-27T15:12:17.000Z</time>
      </trkpt>
      <trkpt lat="46.20488" lon="4.56937">
        <ele>728.40002441406</ele>
        <time>2019-08-27T15:12:24.000Z</time>
      </trkpt>
      <trkpt lat="46.20488" lon="4.56967">
        <ele>730</ele>
        <time>2019-08-27T15:12:32.000Z</time>
      </trkpt>
      <trkpt lat="46.20487" lon="4.56986">
        <ele>730.20001220703</ele>
        <time>2019-08-27T15:12:37.000Z</time>
      </trkpt>
      <trkpt lat="46.20487" lon="4.56997">
        <ele>730.40002441406</ele>
        <time>2019-08-27T15:12:40.000Z</time>
      </trkpt>
      <trkpt lat="46.20486" lon="4.57012">
        <ele>730.79998779297</ele>
        <time>2019-08-27T15:12:44.000Z</time>
      </trkpt>
      <trkpt lat="46.20486" lon="4.57024">
        <ele>730.79998779297</ele>
        <time>2019-08-27T15:12:47.000Z</time>
      </trkpt>
      <trkpt lat="46.20486" lon="4.57031">
        <ele>731</ele>
        <time>2019-08-27T15:12:49.000Z</time>
      </trkpt>
      <trkpt lat="46.20486" lon="4.57053">
        <ele>732.20001220703</ele>
        <time>2019-08-27T15:12:55.000Z</time>
      </trkpt>
      <trkpt lat="46.20486" lon="4.57057">
        <ele>732.59997558594</ele>
        <time>2019-08-27T15:12:56.000Z</time>
      </trkpt>
      <trkpt lat="46.20486" lon="4.57076">
        <ele>733.79998779297</ele>
        <time>2019-08-27T15:13:01.000Z</time>
      </trkpt>
      <trkpt lat="46.20485" lon="4.57087">
        <ele>734.79998779297</ele>
        <time>2019-08-27T15:13:04.000Z</time>
      </trkpt>
      <trkpt lat="46.20486" lon="4.57106">
        <ele>736</ele>
        <time>2019-08-27T15:13:09.000Z</time>
      </trkpt>
      <trkpt lat="46.20485" lon="4.57129">
        <ele>737.59997558594</ele>
        <time>2019-08-27T15:13:15.000Z</time>
      </trkpt>
      <trkpt lat="46.20485" lon="4.57133">
        <ele>738</ele>
        <time>2019-08-27T15:13:16.000Z</time>
      </trkpt>
      <trkpt lat="46.20485" lon="4.57156">
        <ele>739.59997558594</ele>
        <time>2019-08-27T15:13:22.000Z</time>
      </trkpt>
      <trkpt lat="46.20486" lon="4.57159">
        <ele>739.79998779297</ele>
        <time>2019-08-27T15:13:23.000Z</time>
      </trkpt>
      <trkpt lat="46.20486" lon="4.57186">
        <ele>741.59997558594</ele>
        <time>2019-08-27T15:13:30.000Z</time>
      </trkpt>
      <trkpt lat="46.20485" lon="4.57205">
        <ele>743</ele>
        <time>2019-08-27T15:13:35.000Z</time>
      </trkpt>
      <trkpt lat="46.20484" lon="4.57224">
        <ele>745</ele>
        <time>2019-08-27T15:13:40.000Z</time>
      </trkpt>
      <trkpt lat="46.20483" lon="4.57232">
        <ele>746</ele>
        <time>2019-08-27T15:13:42.000Z</time>
      </trkpt>
      <trkpt lat="46.2048" lon="4.57251">
        <ele>748.40002441406</ele>
        <time>2019-08-27T15:13:47.000Z</time>
      </trkpt>
      <trkpt lat="46.20479" lon="4.57259">
        <ele>749.40002441406</ele>
        <time>2019-08-27T15:13:49.000Z</time>
      </trkpt>
      <trkpt lat="46.20472" lon="4.57279">
        <ele>752.79998779297</ele>
        <time>2019-08-27T15:13:55.000Z</time>
      </trkpt>
      <trkpt lat="46.20461" lon="4.573">
        <ele>756</ele>
        <time>2019-08-27T15:14:02.000Z</time>
      </trkpt>
    </trkseg>
  </trk>
</gpx>